createdAt,value
2022-09-28T00:59:39.663Z,7.52
2022-09-28T01:00:38.488Z,7.42
2022-09-28T01:01:38.484Z,7.32
2022-09-28T01:02:39.880Z,7.24
2022-09-28T01:03:39.133Z,7.20
2022-09-28T01:04:38.353Z,7.24
2022-09-28T01:05:39.176Z,7.24
2022-09-28T01:06:38.354Z,7.24
2022-09-28T01:07:38.336Z,7.20
2022-09-28T01:08:39.146Z,7.16
2022-09-28T01:09:38.344Z,7.15
2022-09-28T01:10:39.209Z,7.12
2022-09-28T01:11:38.295Z,7.07
2022-09-28T01:12:38.245Z,7.04
2022-09-28T01:13:39.175Z,6.98
2022-09-28T01:14:38.244Z,6.95
2022-09-28T01:15:38.982Z,6.94
2022-09-28T01:16:39.207Z,6.90
2022-09-28T01:17:39.047Z,6.84
2022-09-28T01:18:39.588Z,6.83
2022-09-28T01:19:39.108Z,6.83
2022-09-28T01:20:39.014Z,6.81
2022-09-28T01:21:38.921Z,6.79
2022-09-28T01:22:39.091Z,6.73
2022-09-28T01:23:38.160Z,6.69
2022-09-28T01:24:38.115Z,6.66
2022-09-28T01:25:38.076Z,6.58
2022-09-28T01:26:38.089Z,6.50
2022-09-28T01:27:38.048Z,6.41
2022-09-28T01:28:38.758Z,6.35
2022-09-28T01:29:37.977Z,6.25
2022-09-28T01:30:38.830Z,6.16
2022-09-28T01:31:38.781Z,6.06
2022-09-28T01:32:37.961Z,5.98
2022-09-28T01:33:38.791Z,5.91
2022-09-28T01:34:38.689Z,5.83
2022-09-28T01:35:37.968Z,5.77
2022-09-28T01:36:38.758Z,5.74
2022-09-28T01:37:38.659Z,5.71
2022-09-28T01:38:37.890Z,5.71
2022-09-28T01:39:37.892Z,5.70
2022-09-28T01:40:38.432Z,5.67
2022-09-28T01:41:37.823Z,5.71
2022-09-28T01:42:38.704Z,5.73
2022-09-28T01:43:37.900Z,5.78
2022-09-28T01:44:41.429Z,5.77
2022-09-28T01:45:38.717Z,5.78
2022-09-28T01:46:39.216Z,5.81
2022-09-28T01:47:38.722Z,5.82
2022-09-28T01:48:37.730Z,5.82
2022-09-28T01:49:38.542Z,5.81
2022-09-28T01:50:38.434Z,5.77
2022-09-28T01:51:38.593Z,5.73
2022-09-28T01:52:38.534Z,5.73
2022-09-28T01:53:38.403Z,5.70
2022-09-28T01:54:38.052Z,5.71
2022-09-28T01:55:38.471Z,5.71
2022-09-28T01:56:38.092Z,5.67
2022-09-28T01:57:38.572Z,5.59
2022-09-28T01:58:38.436Z,5.53
2022-09-28T01:59:37.606Z,5.43
2022-09-28T02:00:38.577Z,5.37
2022-09-28T02:01:38.451Z,5.28
2022-09-28T02:02:38.303Z,5.19
2022-09-28T02:03:38.472Z,5.10
2022-09-28T02:04:38.374Z,4.99
2022-09-28T02:05:38.275Z,4.89
2022-09-28T02:06:37.491Z,4.77
2022-09-28T02:07:38.343Z,4.67
2022-09-28T02:08:38.245Z,4.62
2022-09-28T02:09:37.426Z,4.54
2022-09-28T02:10:38.316Z,4.50
2022-09-28T02:11:37.429Z,4.43
2022-09-28T02:12:37.405Z,4.40
2022-09-28T02:13:37.415Z,4.37
2022-09-28T02:14:38.184Z,4.34
2022-09-28T02:15:38.343Z,4.29
2022-09-28T02:16:38.291Z,4.25
2022-09-28T02:17:37.326Z,4.21
2022-09-28T02:18:38.057Z,4.21
2022-09-28T02:19:37.320Z,4.21
2022-09-28T02:20:38.126Z,4.16
2022-09-28T02:21:38.024Z,4.12
2022-09-28T02:22:37.265Z,4.08
2022-09-28T02:23:38.092Z,4.04
2022-09-28T02:24:38.726Z,4.00
2022-09-28T02:25:37.207Z,3.94
2022-09-28T02:26:38.056Z,3.89
2022-09-28T02:27:37.316Z,3.86
2022-09-28T02:28:37.169Z,3.85
2022-09-28T02:29:37.325Z,3.80
2022-09-28T02:30:37.937Z,3.79
2022-09-28T02:31:38.105Z,3.82
2022-09-28T02:32:37.127Z,3.90
2022-09-28T02:33:37.889Z,3.97
2022-09-28T02:34:38.059Z,3.98
2022-09-28T02:35:38.592Z,4.01
2022-09-28T02:36:37.087Z,4.01
2022-09-28T02:37:38.019Z,4.01
2022-09-28T02:38:37.935Z,4.01
2022-09-28T02:39:37.829Z,4.04
2022-09-28T02:40:37.074Z,4.07
2022-09-28T02:41:37.020Z,4.10
2022-09-28T02:42:37.801Z,4.15
2022-09-28T02:43:37.024Z,4.18
2022-09-28T02:44:36.978Z,4.16
2022-09-28T02:45:37.793Z,4.18
2022-09-28T02:46:37.668Z,4.19
2022-09-28T02:47:37.828Z,4.21
2022-09-28T02:48:43.734Z,4.22
2022-09-28T02:49:37.925Z,4.25
2022-09-28T02:50:36.868Z,4.26
2022-09-28T02:51:38.299Z,4.21
2022-09-28T02:52:37.609Z,4.15
2022-09-28T02:53:37.761Z,4.07
2022-09-28T02:54:37.670Z,4.03
2022-09-28T02:55:37.574Z,4.00
2022-09-28T02:56:37.795Z,3.92
2022-09-28T02:57:37.639Z,3.86
2022-09-28T02:58:37.541Z,3.85
2022-09-28T02:59:37.702Z,3.78
2022-09-28T03:00:37.641Z,3.70
2022-09-28T03:01:37.509Z,3.68
2022-09-28T03:02:36.716Z,3.65
2022-09-28T03:03:37.571Z,3.64
2022-09-28T03:04:37.472Z,3.64
2022-09-28T03:05:37.640Z,3.67
2022-09-28T03:06:36.661Z,3.75
2022-09-28T03:07:37.447Z,3.78
2022-09-28T03:08:37.602Z,3.79
2022-09-28T03:09:37.510Z,3.80
2022-09-28T03:10:37.410Z,3.80
2022-09-28T03:11:36.611Z,3.79
2022-09-28T03:12:36.555Z,3.76
2022-09-28T03:13:36.575Z,3.76
2022-09-28T03:14:36.572Z,3.76
2022-09-28T03:15:36.556Z,3.72
2022-09-28T03:16:37.403Z,3.75
2022-09-28T03:17:37.253Z,3.76
2022-09-28T03:18:37.414Z,3.75
2022-09-28T03:19:36.615Z,3.82
2022-09-28T03:20:36.524Z,3.85
2022-09-28T03:21:37.381Z,3.92
2022-09-28T03:22:37.284Z,3.96
2022-09-28T03:23:37.185Z,4.00
2022-09-28T03:24:36.434Z,4.07
2022-09-28T03:25:36.404Z,4.15
2022-09-28T03:26:37.160Z,4.21
2022-09-28T03:27:36.335Z,4.29
2022-09-28T03:28:36.363Z,4.39
2022-09-28T03:29:36.326Z,4.47
2022-09-28T03:30:36.581Z,4.54
2022-09-28T03:31:37.253Z,4.70
2022-09-28T03:32:36.274Z,4.89
2022-09-28T03:33:36.326Z,5.02
2022-09-28T03:34:36.305Z,5.16
2022-09-28T03:35:37.073Z,5.30
2022-09-28T03:36:36.967Z,5.46
2022-09-28T03:37:36.271Z,5.63
2022-09-28T03:38:37.025Z,5.71
2022-09-28T03:39:36.196Z,5.77
2022-09-28T03:40:37.130Z,5.78
2022-09-28T03:41:37.011Z,5.82
2022-09-28T03:42:36.907Z,5.85
2022-09-28T03:43:37.065Z,5.86
2022-09-28T03:44:36.262Z,5.89
2022-09-28T03:45:36.914Z,5.92
2022-09-28T03:46:37.028Z,5.95
2022-09-28T03:47:36.937Z,6.01
2022-09-28T03:48:36.866Z,6.10
2022-09-28T03:49:36.996Z,6.18
2022-09-28T03:50:36.610Z,6.26
2022-09-28T03:51:36.812Z,6.33
2022-09-28T03:52:36.966Z,6.38
2022-09-28T03:53:36.872Z,6.43
2022-09-28T03:54:35.960Z,6.48
2022-09-28T03:55:36.932Z,6.51
2022-09-28T03:56:36.839Z,6.58
2022-09-28T03:57:36.742Z,6.59
2022-09-28T03:58:35.954Z,6.61
2022-09-28T03:59:36.229Z,6.66
2022-09-28T04:00:36.286Z,6.66
2022-09-28T04:01:36.257Z,6.69
2022-09-28T04:02:36.252Z,6.71
2022-09-28T04:03:36.231Z,6.72
2022-09-28T04:04:35.842Z,6.72
2022-09-28T04:05:36.744Z,6.72
2022-09-28T04:06:37.252Z,6.73
2022-09-28T04:07:35.797Z,6.76
2022-09-28T04:08:36.730Z,6.76
2022-09-28T04:09:35.811Z,6.76
2022-09-28T04:10:35.760Z,6.76
2022-09-28T04:11:59.500Z,6.77
2022-09-28T04:12:36.710Z,6.77
2022-09-28T04:13:36.488Z,6.76
2022-09-28T04:14:35.722Z,6.77
2022-09-28T04:15:35.680Z,6.79
2022-09-28T04:16:36.507Z,6.80
2022-09-28T04:17:39.905Z,6.80
2022-09-28T04:18:35.625Z,6.80
2022-09-28T04:19:35.632Z,6.81
2022-09-28T04:20:36.611Z,6.84
2022-09-28T04:21:36.487Z,6.84
2022-09-28T04:22:36.384Z,6.86
2022-09-28T04:23:36.555Z,6.86
2022-09-28T04:24:36.454Z,6.87
2022-09-28T04:25:35.542Z,6.89
2022-09-28T04:26:36.540Z,6.90
2022-09-28T04:27:35.612Z,6.90
2022-09-28T04:28:36.322Z,6.91
2022-09-28T04:29:36.508Z,6.91
2022-09-28T04:30:36.394Z,6.91
2022-09-28T04:31:35.654Z,6.90
2022-09-28T04:32:35.666Z,6.91
2022-09-28T04:33:35.644Z,6.94
2022-09-28T04:34:40.663Z,6.91
2022-09-28T04:35:36.394Z,6.91
2022-09-28T04:36:35.666Z,6.94
2022-09-28T04:37:35.726Z,6.91
2022-09-28T04:38:52.277Z,6.94
2022-09-28T04:39:37.315Z,6.94
2022-09-28T04:40:36.832Z,6.94
2022-09-28T04:41:35.475Z,6.95
2022-09-28T04:42:35.298Z,6.95
2022-09-28T04:43:35.286Z,6.95
2022-09-28T04:44:36.079Z,6.97
2022-09-28T04:45:36.289Z,6.95
2022-09-28T04:46:36.137Z,6.97
2022-09-28T04:47:35.227Z,6.95
2022-09-28T04:48:35.268Z,6.95
2022-09-28T04:49:36.118Z,6.97
2022-09-28T04:50:35.207Z,6.95
2022-09-28T04:51:35.186Z,6.95
2022-09-28T04:52:36.109Z,6.97
2022-09-28T04:53:35.968Z,6.98
2022-09-28T04:54:35.213Z,6.97
2022-09-28T04:55:35.178Z,6.99
2022-09-28T04:56:35.106Z,6.99
2022-09-28T04:57:35.850Z,6.98
2022-09-28T04:58:35.117Z,7.01
2022-09-28T04:59:35.920Z,7.02
2022-09-28T05:00:35.817Z,7.04
2022-09-28T05:01:35.128Z,7.05
2022-09-28T05:02:35.066Z,7.05
2022-09-28T05:03:35.050Z,7.05
2022-09-28T05:04:35.031Z,7.05
2022-09-28T05:05:35.089Z,7.05
2022-09-28T05:06:35.076Z,7.05
2022-09-28T05:07:35.020Z,7.04
2022-09-28T05:08:34.921Z,7.05
2022-09-28T05:09:38.411Z,7.05
2022-09-28T05:10:35.881Z,7.07
2022-09-28T05:11:35.784Z,7.05
2022-09-28T05:12:36.350Z,7.05
2022-09-28T05:13:35.893Z,7.04
2022-09-28T05:14:35.749Z,7.05
2022-09-28T05:15:35.651Z,7.07
2022-09-28T05:16:35.057Z,7.07
2022-09-28T05:17:35.733Z,7.07
2022-09-28T05:18:35.622Z,7.08
2022-09-28T05:19:34.775Z,7.08
2022-09-28T05:20:35.683Z,7.09
2022-09-28T05:21:35.592Z,7.08
2022-09-28T05:22:34.763Z,7.12
2022-09-28T05:23:34.740Z,7.12
2022-09-28T05:24:34.713Z,7.12
2022-09-28T05:25:35.266Z,7.13
2022-09-28T05:26:35.622Z,7.15
2022-09-28T05:27:35.522Z,7.15
2022-09-28T05:28:35.430Z,7.16
2022-09-28T05:29:35.594Z,7.16
2022-09-28T05:30:34.663Z,7.17
2022-09-28T05:31:34.632Z,7.19
2022-09-28T05:32:35.554Z,7.19
2022-09-28T05:33:35.462Z,7.22
2022-09-28T05:34:34.574Z,7.23
2022-09-28T05:35:35.538Z,7.23
2022-09-28T05:36:35.434Z,7.24
2022-09-28T05:37:35.335Z,7.26
2022-09-28T05:38:35.495Z,7.27
2022-09-28T05:39:35.395Z,7.26
2022-09-28T05:40:34.544Z,7.29
2022-09-28T05:41:35.466Z,7.31
2022-09-28T05:42:34.569Z,7.32
2022-09-28T05:43:35.273Z,7.34
2022-09-28T05:44:35.176Z,7.34
2022-09-28T05:45:34.417Z,7.34
2022-09-28T05:46:34.400Z,7.32
2022-09-28T05:47:35.145Z,7.34
2022-09-28T05:48:34.357Z,7.35
2022-09-28T05:49:35.205Z,7.37
2022-09-28T05:50:35.108Z,7.38
2022-09-28T05:51:34.307Z,7.40
2022-09-28T05:52:35.176Z,7.41
2022-09-28T05:53:35.078Z,7.45
2022-09-28T05:54:35.252Z,7.47
2022-09-28T05:55:34.282Z,7.50
2022-09-28T05:56:35.051Z,7.53
2022-09-28T05:57:35.219Z,7.55
2022-09-28T05:58:35.110Z,7.56
2022-09-28T05:59:35.672Z,7.56
2022-09-28T06:00:34.210Z,7.60
2022-09-28T06:01:35.108Z,7.60
2022-09-28T06:02:35.054Z,7.63
2022-09-28T06:03:35.140Z,7.66
2022-09-28T06:04:34.121Z,7.69
2022-09-28T06:05:34.967Z,7.69
2022-09-28T06:06:34.100Z,7.71
2022-09-28T06:07:35.020Z,7.71
2022-09-28T06:08:35.515Z,7.71
2022-09-28T06:09:34.071Z,7.72
2022-09-28T06:10:34.075Z,7.71
2022-09-28T06:11:35.180Z,7.71
2022-09-28T06:12:34.790Z,7.71
2022-09-28T06:13:34.950Z,7.69
2022-09-28T06:14:34.004Z,7.67
2022-09-28T06:15:33.999Z,7.69
2022-09-28T06:16:35.044Z,7.67
2022-09-28T06:17:33.933Z,7.69
2022-09-28T06:18:34.728Z,7.71
2022-09-28T06:19:35.374Z,7.71
2022-09-28T06:20:34.807Z,7.72
2022-09-28T06:21:34.044Z,7.72
2022-09-28T06:22:33.922Z,7.74
2022-09-28T06:23:34.752Z,7.74
2022-09-28T06:24:33.873Z,7.74
2022-09-28T06:25:33.852Z,7.75
2022-09-28T06:26:34.726Z,7.74
2022-09-28T06:27:34.634Z,7.77
2022-09-28T06:28:34.794Z,7.77
2022-09-28T06:29:33.786Z,7.78
2022-09-28T06:30:35.270Z,7.79
2022-09-28T06:31:34.503Z,7.78
2022-09-28T06:32:33.786Z,7.78
2022-09-28T06:33:33.724Z,7.79
2022-09-28T06:34:33.705Z,7.82
2022-09-28T06:35:35.135Z,7.84
2022-09-28T06:36:33.723Z,7.85
2022-09-28T06:37:33.678Z,7.89
2022-09-28T06:38:34.605Z,7.93
2022-09-28T06:39:33.627Z,7.93
2022-09-28T06:40:34.438Z,7.94
2022-09-28T06:41:34.571Z,7.96
2022-09-28T06:42:33.736Z,7.97
2022-09-28T06:43:34.636Z,7.99
2022-09-28T06:44:34.534Z,8.00
2022-09-28T06:45:33.715Z,8.02
2022-09-28T06:46:33.627Z,8.03
2022-09-28T06:47:33.581Z,8.03
2022-09-28T06:48:33.628Z,8.07
2022-09-28T06:49:33.550Z,8.07
2022-09-28T06:50:33.489Z,8.10
2022-09-28T06:51:34.380Z,8.08
2022-09-28T06:52:34.279Z,8.08
2022-09-28T06:53:33.457Z,8.10
2022-09-28T06:54:34.338Z,8.12
2022-09-28T06:55:33.548Z,8.14
2022-09-28T06:56:33.440Z,8.14
2022-09-28T06:57:34.322Z,8.14
2022-09-28T06:58:34.210Z,8.15
2022-09-28T06:59:34.120Z,8.15
2022-09-28T07:00:33.361Z,8.17
2022-09-28T07:01:33.385Z,8.17
2022-09-28T07:02:34.145Z,8.18
2022-09-28T07:03:33.373Z,8.17
2022-09-28T07:04:33.381Z,8.18
2022-09-28T07:05:34.060Z,8.18
2022-09-28T07:06:34.211Z,8.20
2022-09-28T07:07:33.263Z,8.21
2022-09-28T07:08:33.233Z,8.22
2022-09-28T07:09:36.939Z,8.22
2022-09-28T07:10:34.252Z,8.25
2022-09-28T07:11:33.203Z,8.29
2022-09-28T07:12:34.156Z,8.29
2022-09-28T07:13:49.510Z,8.32
2022-09-28T07:14:47.352Z,8.36
2022-09-28T07:15:34.883Z,8.36
2022-09-28T07:17:01.978Z,8.42
2022-09-28T07:17:37.750Z,8.45
2022-09-28T07:18:34.134Z,8.48
2022-09-28T07:19:33.128Z,8.51
2022-09-28T07:20:43.128Z,8.54
2022-09-28T07:21:34.094Z,8.58
2022-09-28T07:22:42.329Z,8.62
2022-09-28T07:23:45.128Z,8.63
2022-09-28T07:24:34.785Z,8.63
2022-09-28T07:25:33.927Z,8.60
2022-09-28T07:26:33.024Z,8.57
2022-09-28T07:27:33.166Z,8.58
2022-09-28T07:28:33.893Z,8.58
2022-09-28T07:29:32.925Z,8.57
2022-09-28T07:30:33.327Z,8.57
2022-09-28T07:31:33.866Z,8.58
2022-09-28T07:32:32.918Z,8.60
2022-09-28T07:33:33.669Z,8.65
2022-09-28T07:34:32.886Z,8.66
2022-09-28T07:35:33.733Z,8.71
2022-09-28T07:36:32.892Z,8.72
2022-09-28T07:37:32.867Z,8.76
2022-09-28T07:38:33.105Z,8.84
2022-09-28T07:39:33.277Z,8.91
2022-09-28T07:40:32.874Z,9.01
2022-09-28T07:41:33.108Z,9.05
2022-09-28T07:42:32.776Z,9.15
2022-09-28T07:43:32.800Z,9.16
2022-09-28T07:44:32.965Z,9.21
2022-09-28T07:45:32.800Z,9.20
2022-09-28T07:46:32.756Z,9.18
2022-09-28T07:47:35.301Z,9.21
2022-09-28T07:48:32.678Z,9.21
2022-09-28T07:49:48.138Z,9.23
2022-09-28T07:50:32.693Z,9.20
2022-09-28T07:51:32.671Z,9.16
2022-09-28T07:52:32.840Z,9.21
2022-09-28T07:53:32.728Z,9.24
2022-09-28T07:54:32.622Z,9.24
2022-09-28T07:55:32.712Z,9.28
2022-09-28T07:56:32.983Z,9.31
2022-09-28T07:57:32.684Z,9.34
2022-09-28T07:58:32.601Z,9.38
2022-09-28T07:59:32.616Z,9.38
2022-09-28T08:00:44.395Z,9.38
2022-09-28T08:01:32.869Z,9.40
2022-09-28T08:02:32.558Z,9.42
2022-09-28T08:03:33.345Z,9.43
2022-09-28T08:04:32.505Z,9.45
2022-09-28T08:05:32.555Z,9.49
2022-09-28T08:06:32.443Z,9.50
2022-09-28T08:07:32.681Z,9.50
2022-09-28T08:08:32.610Z,9.53
2022-09-28T08:09:32.417Z,9.57
2022-09-28T08:10:32.504Z,9.64
2022-09-28T08:11:32.501Z,9.67
2022-09-28T08:12:32.415Z,9.73
2022-09-28T08:13:32.406Z,9.81
2022-09-28T08:14:32.325Z,9.86
2022-09-28T08:15:32.355Z,9.94
2022-09-28T08:16:32.651Z,10.03
2022-09-28T08:17:32.477Z,10.17
2022-09-28T08:18:32.246Z,10.24
2022-09-28T08:19:32.397Z,10.26
2022-09-28T08:20:32.232Z,10.32
2022-09-28T08:21:32.317Z,10.37
2022-09-28T08:22:32.255Z,10.39
2022-09-28T08:23:32.247Z,10.43
2022-09-28T08:24:32.312Z,10.44
2022-09-28T08:25:32.870Z,10.47
2022-09-28T08:26:32.379Z,10.36
2022-09-28T08:27:32.231Z,10.22
2022-09-28T08:28:32.166Z,10.12
2022-09-28T08:29:32.190Z,9.97
2022-09-28T08:30:32.310Z,9.82
2022-09-28T08:31:32.316Z,9.71
2022-09-28T08:32:32.127Z,9.67
2022-09-28T08:33:32.052Z,9.66
2022-09-28T08:34:32.070Z,9.68
2022-09-28T08:35:32.084Z,9.78
2022-09-28T08:36:32.065Z,9.82
2022-09-28T08:37:32.071Z,9.89
2022-09-28T08:38:32.101Z,9.99
2022-09-28T08:39:32.711Z,10.03
2022-09-28T08:40:31.997Z,10.06
2022-09-28T08:41:32.783Z,10.09
2022-09-28T08:42:31.964Z,10.14
2022-09-28T08:43:32.031Z,10.14
2022-09-28T08:44:32.054Z,10.14
2022-09-28T08:45:31.863Z,10.17
2022-09-28T08:46:32.859Z,10.24
2022-09-28T08:47:32.713Z,10.32
2022-09-28T08:48:31.834Z,10.36
2022-09-28T08:49:31.978Z,10.42
2022-09-28T08:50:33.304Z,10.51
2022-09-28T08:51:31.774Z,10.55
2022-09-28T08:52:31.787Z,10.56
2022-09-28T08:53:31.774Z,10.58
2022-09-28T08:54:31.920Z,10.62
2022-09-28T08:55:31.753Z,10.68
2022-09-28T08:56:32.617Z,10.74
2022-09-28T08:57:32.538Z,10.78
2022-09-28T08:58:31.725Z,10.81
2022-09-28T08:59:32.001Z,10.81
2022-09-28T09:00:31.650Z,10.83
2022-09-28T09:01:31.772Z,10.81
2022-09-28T09:02:31.813Z,10.80
2022-09-28T09:03:31.608Z,10.71
2022-09-28T09:04:32.616Z,10.65
2022-09-28T09:05:31.593Z,10.62
2022-09-28T09:06:31.588Z,10.63
2022-09-28T09:07:32.332Z,10.70
2022-09-28T09:08:32.491Z,10.76
2022-09-28T09:09:32.388Z,10.83
2022-09-28T09:10:31.588Z,10.88
2022-09-28T09:11:31.533Z,10.89
2022-09-28T09:12:31.520Z,10.94
2022-09-28T09:13:31.450Z,10.99
2022-09-28T09:14:31.460Z,11.09
2022-09-28T09:15:32.323Z,11.17
2022-09-28T09:16:31.440Z,11.20
2022-09-28T09:17:32.391Z,11.17
2022-09-28T09:18:32.912Z,11.17
2022-09-28T09:19:32.201Z,11.14
2022-09-28T09:20:32.359Z,11.13
2022-09-28T09:21:32.263Z,11.10
2022-09-28T09:22:32.164Z,11.07
2022-09-28T09:23:31.312Z,11.01
2022-09-28T09:24:32.232Z,10.96
2022-09-28T09:25:35.428Z,10.91
2022-09-28T09:26:33.062Z,10.80
2022-09-28T09:27:32.195Z,10.73
2022-09-28T09:28:32.112Z,10.68
2022-09-28T09:29:31.249Z,10.71
2022-09-28T09:30:31.806Z,10.71
2022-09-28T09:31:32.066Z,10.68
2022-09-28T09:32:31.187Z,10.65
2022-09-28T09:33:31.216Z,10.65
2022-09-28T09:34:32.040Z,10.70
2022-09-28T09:35:31.938Z,10.76
2022-09-28T09:36:31.144Z,10.81
2022-09-28T09:37:32.006Z,10.89
2022-09-28T09:38:31.910Z,11.01
2022-09-28T09:39:32.076Z,11.11
2022-09-28T09:40:32.008Z,11.25
2022-09-28T09:41:31.879Z,11.32
2022-09-28T09:42:32.037Z,11.38
2022-09-28T09:43:32.009Z,11.41
2022-09-28T09:44:31.846Z,11.43
2022-09-28T09:45:31.065Z,11.36
2022-09-28T09:46:32.628Z,11.39
2022-09-28T09:47:31.815Z,11.41
2022-09-28T09:48:31.719Z,11.43
2022-09-28T09:49:31.065Z,11.44
2022-09-28T09:50:31.780Z,11.36
2022-09-28T09:51:32.381Z,11.31
2022-09-28T09:52:31.850Z,11.27
2022-09-28T09:53:36.098Z,11.24
2022-09-28T09:54:32.671Z,11.28
2022-09-28T09:55:30.863Z,11.34
2022-09-28T09:56:31.712Z,11.36
2022-09-28T09:57:31.622Z,11.32
2022-09-28T09:58:31.784Z,11.31
2022-09-28T09:59:31.688Z,11.32
2022-09-28T10:00:30.826Z,11.31
2022-09-28T10:01:31.832Z,11.36
2022-09-28T10:02:31.753Z,11.38
2022-09-28T10:03:31.554Z,11.49
2022-09-28T10:04:31.716Z,11.57
2022-09-28T10:05:31.624Z,11.67
2022-09-28T10:06:30.705Z,11.74
2022-09-28T10:07:31.634Z,11.80
2022-09-28T10:08:30.651Z,11.87
2022-09-28T10:09:31.495Z,11.94
2022-09-28T10:10:31.397Z,12.02
2022-09-28T10:11:30.628Z,12.11
2022-09-28T10:12:31.461Z,12.16
2022-09-28T10:13:30.597Z,12.26
2022-09-28T10:14:31.527Z,12.29
2022-09-28T10:15:31.426Z,12.34
2022-09-28T10:16:30.622Z,12.48
2022-09-28T10:17:31.488Z,12.64
2022-09-28T10:18:31.397Z,12.70
2022-09-28T10:19:31.299Z,12.88
2022-09-28T10:20:31.458Z,12.99
2022-09-28T10:21:31.368Z,13.04
2022-09-28T10:22:31.272Z,13.09
2022-09-28T10:23:31.460Z,13.11
2022-09-28T10:24:30.818Z,13.18
2022-09-28T10:25:31.241Z,13.17
2022-09-28T10:26:31.402Z,13.07
2022-09-28T10:27:30.425Z,12.95
2022-09-28T10:28:31.211Z,12.79
2022-09-28T10:29:32.248Z,12.81
2022-09-28T10:30:30.428Z,12.84
2022-09-28T10:31:31.172Z,12.96
2022-09-28T10:32:30.333Z,13.00
2022-09-28T10:33:31.233Z,13.02
2022-09-28T10:34:31.165Z,13.04
2022-09-28T10:35:30.393Z,13.11
2022-09-28T10:36:30.286Z,13.14
2022-09-28T10:37:31.115Z,13.12
2022-09-28T10:38:30.268Z,13.02
2022-09-28T10:39:30.354Z,13.02
2022-09-28T10:40:31.173Z,13.03
2022-09-28T10:41:30.257Z,13.06
2022-09-28T10:42:31.168Z,12.96
2022-09-28T10:43:30.218Z,12.87
2022-09-28T10:44:30.186Z,12.87
2022-09-28T10:45:30.156Z,12.87
2022-09-28T10:46:31.068Z,12.89
2022-09-28T10:47:30.919Z,12.85
2022-09-28T10:48:30.167Z,12.74
2022-09-28T10:49:31.080Z,12.70
2022-09-28T10:50:30.887Z,12.71
2022-09-28T10:51:31.046Z,12.78
2022-09-28T10:52:30.948Z,12.82
2022-09-28T10:53:30.852Z,12.78
2022-09-28T10:54:31.010Z,12.88
2022-09-28T10:55:30.040Z,12.97
2022-09-28T10:56:30.060Z,13.02
2022-09-28T10:57:30.735Z,13.36
2022-09-28T10:58:30.101Z,14.06
2022-09-28T10:59:30.791Z,14.60
2022-09-28T11:00:30.692Z,14.83
2022-09-28T11:01:30.049Z,15.36
2022-09-28T11:02:35.698Z,15.79
2022-09-28T11:03:29.943Z,15.52
2022-09-28T11:04:30.823Z,15.23
2022-09-28T11:05:29.894Z,15.03
2022-09-28T11:06:29.817Z,14.78
2022-09-28T11:07:30.863Z,14.52
2022-09-28T11:08:30.706Z,14.44
2022-09-28T11:09:31.159Z,14.32
2022-09-28T11:10:30.755Z,14.28
2022-09-28T11:11:30.675Z,14.19
2022-09-28T11:12:30.565Z,14.17
2022-09-28T11:13:30.790Z,14.67
2022-09-28T11:14:30.657Z,15.86
2022-09-28T11:15:29.698Z,16.44
2022-09-28T11:16:30.741Z,17.73
2022-09-28T11:17:30.611Z,18.87
2022-09-28T11:18:29.731Z,19.48
2022-09-28T11:19:30.677Z,20.30
2022-09-28T11:20:29.648Z,21.16
2022-09-28T11:21:30.469Z,21.61
2022-09-28T11:22:29.646Z,21.79
2022-09-28T11:23:30.543Z,21.74
2022-09-28T11:24:30.437Z,21.56
2022-09-28T11:25:30.356Z,21.48
2022-09-28T11:26:29.602Z,21.50
2022-09-28T11:27:30.404Z,21.51
2022-09-28T11:28:30.587Z,21.39
2022-09-28T11:29:30.472Z,21.13
2022-09-28T11:30:29.711Z,21.09
2022-09-28T11:31:29.649Z,20.80
2022-09-28T11:32:30.437Z,20.30
2022-09-28T11:33:30.343Z,19.86
2022-09-28T11:34:47.815Z,19.46
2022-09-28T11:35:31.436Z,19.23
2022-09-28T11:36:29.471Z,19.33
2022-09-28T11:37:29.560Z,19.17
2022-09-28T11:38:30.374Z,19.17
2022-09-28T11:39:30.291Z,19.50
2022-09-28T11:40:29.801Z,19.68
2022-09-28T11:41:30.338Z,18.80
2022-09-28T11:42:30.268Z,17.95
2022-09-28T11:43:30.157Z,17.35
2022-09-28T11:44:33.366Z,17.07
2022-09-28T11:45:29.299Z,17.35
2022-09-28T11:46:30.293Z,17.85
2022-09-28T11:47:29.629Z,17.74
2022-09-28T11:48:30.180Z,17.47
2022-09-28T11:49:30.734Z,17.84
2022-09-28T11:50:29.220Z,18.09
2022-09-28T11:51:29.243Z,18.42
2022-09-28T11:52:30.053Z,18.74
2022-09-28T11:53:29.173Z,18.28
2022-09-28T11:54:30.134Z,17.54
2022-09-28T11:55:29.209Z,17.15
2022-09-28T11:56:29.155Z,16.95
2022-09-28T11:57:29.140Z,16.59
2022-09-28T11:58:29.109Z,16.71
2022-09-28T11:59:29.244Z,16.98
2022-09-28T12:00:29.115Z,17.25
2022-09-28T12:01:29.579Z,17.47
2022-09-28T12:02:29.960Z,17.82
2022-09-28T12:03:29.176Z,18.19
2022-09-28T12:04:29.924Z,18.34
2022-09-28T12:05:29.054Z,18.61
2022-09-28T12:06:30.007Z,18.90
2022-09-28T12:07:29.051Z,19.51
2022-09-28T12:08:29.799Z,20.05
2022-09-28T12:09:29.700Z,20.65
2022-09-28T12:10:30.402Z,21.14
2022-09-28T12:11:29.760Z,21.36
2022-09-28T12:12:29.675Z,20.23
2022-09-28T12:13:29.830Z,20.56
2022-09-28T12:14:28.880Z,21.01
2022-09-28T12:15:35.008Z,21.20
2022-09-28T12:17:03.642Z,21.61
2022-09-28T12:17:30.101Z,21.67
2022-09-28T12:18:29.603Z,21.63
2022-09-28T12:19:29.763Z,21.78
2022-09-28T12:20:29.679Z,21.82
2022-09-28T12:21:28.825Z,20.90
2022-09-28T12:22:29.755Z,20.50
2022-09-28T12:23:29.637Z,20.56
2022-09-28T12:24:29.105Z,20.76
2022-09-28T12:25:29.221Z,20.91
2022-09-28T12:26:29.624Z,21.04
2022-09-28T12:27:29.506Z,21.01
2022-09-28T12:28:29.672Z,21.16
2022-09-28T12:29:29.087Z,21.38
2022-09-28T12:30:28.732Z,21.32
2022-09-28T12:31:30.089Z,21.30
2022-09-28T12:32:29.546Z,21.36
2022-09-28T12:33:29.446Z,21.45
2022-09-28T12:34:29.364Z,21.59
2022-09-28T12:35:29.510Z,20.81
2022-09-28T12:36:29.413Z,21.38
2022-09-28T12:37:29.311Z,21.66
2022-09-28T12:38:28.579Z,21.63
2022-09-28T12:39:46.790Z,21.51
2022-09-28T12:40:30.385Z,21.41
2022-09-28T12:41:29.445Z,21.29
2022-09-28T12:42:28.650Z,20.72
2022-09-28T12:43:28.536Z,20.49
2022-09-28T12:44:29.440Z,20.18
2022-09-28T12:45:32.848Z,19.42
2022-09-28T12:46:29.718Z,18.33
2022-09-28T12:47:29.924Z,17.33
2022-09-28T12:48:29.315Z,16.62
2022-09-28T12:50:52.751Z,15.78
2022-09-28T12:51:29.647Z,15.48
2022-09-28T12:52:28.448Z,15.24
2022-09-28T12:53:29.317Z,15.02
2022-09-28T12:54:29.274Z,15.09
2022-09-28T12:55:29.128Z,15.85
2022-09-28T12:56:29.316Z,15.89
2022-09-28T12:57:28.313Z,16.30
2022-09-28T12:58:29.091Z,17.25
2022-09-28T12:59:29.259Z,18.10
2022-09-28T13:00:29.158Z,18.70
2022-09-28T13:01:29.214Z,19.29
2022-09-28T13:02:29.031Z,19.98
2022-09-28T13:03:29.123Z,20.65
2022-09-28T13:04:28.201Z,21.17
2022-09-28T13:05:28.532Z,21.74
2022-09-28T13:06:29.092Z,22.20
2022-09-28T13:07:29.007Z,22.65
2022-09-28T13:08:28.167Z,22.49
2022-09-28T13:09:28.154Z,22.41
2022-09-28T13:10:28.964Z,22.19
2022-09-28T13:11:28.225Z,22.20
2022-09-28T13:12:29.032Z,21.94
2022-09-28T13:13:29.613Z,21.19
2022-09-28T13:14:28.056Z,20.98
2022-09-28T13:15:28.076Z,21.50
2022-09-28T13:16:28.907Z,22.06
2022-09-28T13:17:28.005Z,22.23
2022-09-28T13:18:29.453Z,21.95
2022-09-28T13:19:28.872Z,21.04
2022-09-28T13:20:27.956Z,20.33
2022-09-28T13:21:28.935Z,19.78
2022-09-28T13:22:28.837Z,19.23
2022-09-28T13:23:28.744Z,18.74
2022-09-28T13:24:32.863Z,18.31
2022-09-28T13:25:27.977Z,17.95
2022-09-28T13:26:28.709Z,17.55
2022-09-28T13:27:28.616Z,17.26
2022-09-28T13:28:29.322Z,17.03
2022-09-28T13:29:28.902Z,16.75
2022-09-28T13:30:28.597Z,16.53
2022-09-28T13:31:30.879Z,16.56
2022-09-28T13:32:28.646Z,17.59
2022-09-28T13:33:27.841Z,18.62
2022-09-28T13:34:27.795Z,19.31
2022-09-28T13:35:28.616Z,19.36
2022-09-28T13:36:28.520Z,18.91
2022-09-28T13:37:27.773Z,19.57
2022-09-28T13:38:28.584Z,19.08
2022-09-28T13:39:27.717Z,18.25
2022-09-28T13:40:28.674Z,17.55
2022-09-28T13:41:27.739Z,16.98
2022-09-28T13:42:27.687Z,16.49
2022-09-28T13:43:28.628Z,16.06
2022-09-28T13:44:27.759Z,15.63
2022-09-28T13:45:28.419Z,15.30
2022-09-28T13:46:27.756Z,15.05
2022-09-28T13:47:28.486Z,14.75
2022-09-28T13:48:27.941Z,14.46
2022-09-28T13:49:29.010Z,14.20
2022-09-28T13:50:28.454Z,14.04
2022-09-28T13:51:28.354Z,13.89
2022-09-28T13:52:27.555Z,13.74
2022-09-28T13:53:27.512Z,13.62
2022-09-28T13:54:28.371Z,13.56
2022-09-28T13:55:28.236Z,13.51
2022-09-28T13:56:28.391Z,13.89
2022-09-28T13:57:27.470Z,14.98
2022-09-28T13:58:28.205Z,15.43
2022-09-28T13:59:28.355Z,16.45
2022-09-28T14:00:28.261Z,17.33
2022-09-28T14:01:28.221Z,16.92
2022-09-28T14:02:33.017Z,16.35
2022-09-28T14:03:28.233Z,15.88
2022-09-28T14:04:28.397Z,15.57
2022-09-28T14:05:27.326Z,15.31
2022-09-28T14:06:27.437Z,15.03
2022-09-28T14:08:27.298Z,14.56